Terminal Aerodrome Forecast
Issued by NWS Tampa Bay Area, FL

Home | Current Version | Previous Version | Text Only | Print | Product List | Glossary On
Versions: 1 2 3 4 5 6 7 8 9 10 11 12 13 14 15 16 17 18 19 20 21 22 23 24 25
000
FTUS42 KTBW 200305 AAA
TAFTPA
TAF AMD
KTPA 200305Z 2003/2106 VRB03KT P6SM SKC
     FM201200 04006KT P6SM FEW030 SCT250
     FM201800 26007KT P6SM SCT035 SCT250
     FM202300 03011G15KT P6SM SCT035 SCT250
     FM210300 05012KT P6SM FEW015 BKN025=

USA.gov is the U.S. government's official web portal to all federal, state and local government web resources and services.